Aérodrome :







RETROUVEZ-NOUS SUR...

 
LOGIN :

S'inscrire | Disclaimer

   EN    FR    IT 

 









Légende :    VFR   VFR Marginal   IFR   IFR Intensif   IFR Très Intensif
Visi : 
Plafond : 
>= 8 km
>= 3000ft
5 à 8 km
1000 à 3000 ft
1500m à 5 km
500 à 1000 ft
800 à 1500m
200 à 500 ft
< 800m
< 200 ft
Symboles :   Orages  Brouillard  Fortes neiges  Fortes précipitations  Vent > 20 kt






- Altitude de l'aérodrome : 38 ft
- Code IATA : TAB


TTCP - Crown Point Int.

DERNIER METAR :
  • 281600Z 15009KT 9999 VCSH FEW016TCU 32/24 Q1012 NOSIG RMK TCU SE

METARs EXPIRÉS :
  • 281500Z 15009KT 9999 FEW020 32/24 Q1013 NOSIG
  • 281400Z 14010KT 9999 FEW018 32/24 Q1013 NOSIG

TAF TAF TTCP
Valide du 28 à 12h jusqu'au 29 à 12h UTC


281000Z 2812/2912 VRB05KT 9999 FEW018
PROB40
TEMPO 2815/2821 6000 SHRA FEW012CB BKN015
BECMG 2823/2901 08005KT FEW016
FIR TTZP / Amérique du Nord



MET'MAP, la Météo Aéronautique d'un coup d'oeil ! - Copyright ORBIFLY Décembre 2007 - Disclaimer

ORBIFLY MET'MAP TEAM :

Programmation & Développement : Alexandra Zaïnal
Sur une idée originale de : Baudouin d'Aumeries
Assistance à la programmation : Marc-Olivier Méhu
Soutien technique & logistique : Manuel Goepfert

Contact : metmap@orbifly.com




SOURCES & CREDITS :

   NOAA